createdAt,value
2019-02-05T00:00:11.725Z,0
2019-02-05T00:01:13.987Z,0
2019-02-05T00:02:16.129Z,0
2019-02-05T00:03:18.564Z,0
2019-02-05T00:04:20.714Z,0
2019-02-05T00:05:22.823Z,0
2019-02-05T00:06:24.988Z,0
2019-02-05T00:07:27.145Z,0
2019-02-05T00:08:29.417Z,0
2019-02-05T00:09:32.396Z,0
2019-02-05T00:10:35.289Z,0
2019-02-05T00:11:37.454Z,0
2019-02-05T00:12:39.605Z,0
2019-02-05T00:13:41.744Z,0
2019-02-05T00:14:43.910Z,0
2019-02-05T00:15:46.053Z,0
2019-02-05T00:16:48.228Z,0
2019-02-05T00:17:50.375Z,0
2019-02-05T00:18:52.646Z,0
2019-02-05T00:19:54.820Z,0
2019-02-05T00:20:58.515Z,0
2019-02-05T00:22:01.141Z,0
2019-02-05T00:23:03.853Z,0
2019-02-05T00:24:06.000Z,0
2019-02-05T00:25:08.273Z,0
2019-02-05T00:26:10.433Z,0
2019-02-05T00:27:12.642Z,0
2019-02-05T00:28:14.842Z,0
2019-02-05T00:29:17.046Z,0
2019-02-05T00:30:19.271Z,0
2019-02-05T00:31:21.722Z,0
2019-02-05T00:32:25.099Z,0
2019-02-05T00:33:27.593Z,0
2019-02-05T00:34:29.719Z,0
2019-02-05T00:35:31.890Z,0
2019-02-05T00:36:34.108Z,0
2019-02-05T00:37:36.369Z,0
2019-02-05T00:38:38.549Z,0
2019-02-05T00:39:40.903Z,0
2019-02-05T00:40:43.148Z,0
2019-02-05T00:41:45.554Z,0
2019-02-05T00:42:48.875Z,0
2019-02-05T00:43:51.711Z,0
2019-02-05T00:44:53.850Z,0
2019-02-05T00:45:55.986Z,0
2019-02-05T00:46:58.129Z,0
2019-02-05T00:48:00.289Z,0
2019-02-05T00:49:03.005Z,0
2019-02-05T00:50:05.133Z,0
2019-02-05T00:51:07.306Z,0
2019-02-05T00:52:09.721Z,0
2019-02-05T00:53:11.859Z,0
2019-02-05T00:54:15.482Z,0
2019-02-05T00:55:18.159Z,0
2019-02-05T00:56:20.681Z,0
2019-02-05T00:57:22.830Z,0
2019-02-05T00:58:24.964Z,0
2019-02-05T00:59:27.122Z,0
2019-02-05T01:00:29.257Z,0
2019-02-05T01:01:31.435Z,0
2019-02-05T01:02:33.602Z,0
2019-02-05T01:03:35.713Z,0
2019-02-05T01:04:38.195Z,0
2019-02-05T01:05:41.706Z,0
2019-02-05T01:06:43.854Z,0
2019-02-05T01:07:45.983Z,0
2019-02-05T01:08:48.513Z,0
2019-02-05T01:09:50.658Z,0
2019-02-05T01:10:53.102Z,0
2019-02-05T01:11:55.266Z,0
2019-02-05T01:12:57.415Z,0
2019-02-05T01:13:59.567Z,0
2019-02-05T01:15:01.713Z,0
2019-02-05T01:16:05.204Z,0
2019-02-05T01:17:07.506Z,0
2019-02-05T01:18:09.640Z,0
2019-02-05T01:19:12.059Z,0
2019-02-05T01:20:14.214Z,0
2019-02-05T01:21:16.362Z,0
2019-02-05T01:22:18.494Z,0
2019-02-05T01:23:21.309Z,0
2019-02-05T01:24:23.750Z,0
2019-02-05T01:25:26.298Z,0
2019-02-05T01:26:29.486Z,0
2019-02-05T01:27:33.965Z,0
2019-02-05T01:28:37.154Z,0
2019-02-05T01:29:39.704Z,0
2019-02-05T01:30:41.854Z,0
2019-02-05T01:31:44.004Z,0
2019-02-05T01:32:46.425Z,0
2019-02-05T01:33:48.565Z,0
2019-02-05T01:34:50.684Z,0
2019-02-05T01:35:52.913Z,0
2019-02-05T01:36:55.044Z,0
2019-02-05T01:37:57.219Z,0
2019-02-05T01:39:00.606Z,0
2019-02-05T01:40:02.782Z,0
2019-02-05T01:41:04.915Z,0
2019-02-05T01:42:07.055Z,0
2019-02-05T01:43:09.589Z,0
2019-02-05T01:44:11.719Z,0
2019-02-05T01:45:13.874Z,0
2019-02-05T01:46:16.287Z,0
2019-02-05T01:47:18.462Z,0
2019-02-05T01:48:20.897Z,0
2019-02-05T01:49:23.584Z,0
2019-02-05T01:50:27.479Z,0
2019-02-05T01:51:30.062Z,0
2019-02-05T01:52:32.197Z,0
2019-02-05T01:53:34.333Z,0
2019-02-05T01:54:36.467Z,0
2019-02-05T01:55:38.997Z,0
2019-02-05T01:56:41.517Z,0
2019-02-05T01:57:43.679Z,0
2019-02-05T01:58:45.831Z,0
2019-02-05T01:59:47.970Z,0
2019-02-05T02:00:50.609Z,0
2019-02-05T02:01:54.014Z,0
2019-02-05T02:02:56.383Z,0
2019-02-05T02:03:58.615Z,0
2019-02-05T02:05:01.054Z,0
2019-02-05T02:06:03.294Z,0
2019-02-05T02:07:05.562Z,0
2019-02-05T02:08:08.103Z,0
2019-02-05T02:09:10.228Z,0
2019-02-05T02:10:12.377Z,0
2019-02-05T02:11:14.525Z,0
2019-02-05T02:12:17.991Z,0
2019-02-05T02:13:20.157Z,0
2019-02-05T02:14:22.303Z,0
2019-02-05T02:15:24.446Z,0
2019-02-05T02:16:26.583Z,0
2019-02-05T02:17:28.795Z,0
2019-02-05T02:18:30.946Z,0
2019-02-05T02:19:33.112Z,0
2019-02-05T02:20:35.254Z,0
2019-02-05T02:21:37.788Z,0
2019-02-05T02:22:41.278Z,0
2019-02-05T02:23:44.487Z,0
2019-02-05T02:24:46.912Z,0
2019-02-05T02:25:49.030Z,0
2019-02-05T02:26:52.154Z,0
2019-02-05T02:27:54.826Z,0
2019-02-05T02:28:56.973Z,0
2019-02-05T02:29:59.502Z,0
2019-02-05T02:31:01.913Z,0
2019-02-05T02:32:04.187Z,0
2019-02-05T02:33:06.729Z,0
2019-02-05T02:34:10.412Z,0
2019-02-05T02:35:13.042Z,0
2019-02-05T02:36:15.516Z,0
2019-02-05T02:37:17.935Z,0
2019-02-05T02:38:20.369Z,0
2019-02-05T02:39:22.634Z,0
2019-02-05T02:40:24.865Z,0
2019-02-05T02:41:27.031Z,0
2019-02-05T02:42:29.177Z,0
2019-02-05T02:43:31.331Z,0
2019-02-05T02:44:33.477Z,0
2019-02-05T02:45:37.056Z,0
2019-02-05T02:46:39.231Z,0
2019-02-05T02:47:41.377Z,0
2019-02-05T02:48:43.667Z,0
2019-02-05T02:49:45.820Z,0
2019-02-05T02:50:48.268Z,0
2019-02-05T02:51:50.402Z,0
2019-02-05T02:52:52.561Z,0
2019-02-05T02:53:56.034Z,0
2019-02-05T02:54:58.195Z,0
2019-02-05T02:56:00.565Z,0
2019-02-05T02:57:05.138Z,0
2019-02-05T02:58:07.342Z,0
2019-02-05T02:59:09.569Z,0
2019-02-05T03:00:11.869Z,0
2019-02-05T03:01:14.055Z,0
2019-02-05T03:02:16.781Z,0
2019-02-05T03:03:19.241Z,0
2019-02-05T03:04:21.688Z,0
2019-02-05T03:05:24.267Z,0
2019-02-05T03:06:26.756Z,0
2019-02-05T03:07:30.501Z,0
2019-02-05T03:08:32.687Z,0
2019-02-05T03:09:34.838Z,0
2019-02-05T03:10:37.093Z,0
2019-02-05T03:11:39.366Z,0
2019-02-05T03:12:41.563Z,0
2019-02-05T03:13:43.701Z,0
2019-02-05T03:14:45.882Z,0
2019-02-05T03:15:48.080Z,0
2019-02-05T03:16:50.515Z,0
2019-02-05T03:17:54.090Z,0
2019-02-05T03:18:56.627Z,0
2019-02-05T03:19:59.224Z,0
2019-02-05T03:21:02.246Z,0
2019-02-05T03:22:04.393Z,0
2019-02-05T03:23:06.990Z,0
2019-02-05T03:24:09.213Z,0
2019-02-05T03:25:11.455Z,0
2019-02-05T03:26:13.648Z,0
2019-02-05T03:27:18.349Z,0
2019-02-05T03:28:22.602Z,0
2019-02-05T03:29:25.083Z,0
2019-02-05T03:30:27.365Z,0
2019-02-05T03:31:29.918Z,0
2019-02-05T03:32:32.529Z,0
2019-02-05T03:33:34.767Z,0
2019-02-05T03:34:37.291Z,0
2019-02-05T03:35:39.760Z,0
2019-02-05T03:36:41.934Z,0
2019-02-05T03:37:44.749Z,0
2019-02-05T03:38:48.873Z,0
2019-02-05T03:39:51.056Z,0
2019-02-05T03:40:53.442Z,0
2019-02-05T03:41:55.622Z,0
2019-02-05T03:42:57.794Z,0
2019-02-05T03:43:59.970Z,0
2019-02-05T03:45:02.122Z,0
2019-02-05T03:46:04.900Z,0
2019-02-05T03:47:07.071Z,0
2019-02-05T03:48:09.898Z,0
2019-02-05T03:49:13.196Z,0
2019-02-05T03:50:15.444Z,0
2019-02-05T03:51:17.613Z,0
2019-02-05T03:52:19.780Z,0
2019-02-05T03:53:21.935Z,0
2019-02-05T03:54:24.103Z,0
2019-02-05T03:55:26.294Z,0
2019-02-05T03:56:28.464Z,0
2019-02-05T03:57:31.954Z,0
2019-02-05T03:58:34.626Z,0
2019-02-05T03:59:38.354Z,0
2019-02-05T04:00:40.526Z,0
2019-02-05T04:01:42.992Z,0
2019-02-05T04:02:45.268Z,0
2019-02-05T04:03:47.419Z,0
2019-02-05T04:04:49.870Z,0
2019-02-05T04:05:52.050Z,0
2019-02-05T04:06:54.246Z,0
2019-02-05T04:07:56.454Z,0
2019-02-05T04:08:59.026Z,0
2019-02-05T04:10:02.432Z,0
2019-02-05T04:11:06.195Z,0
2019-02-05T04:12:09.021Z,0
2019-02-05T04:13:11.210Z,0
2019-02-05T04:14:13.356Z,0
2019-02-05T04:15:15.526Z,0
2019-02-05T04:16:17.717Z,0
2019-02-05T04:17:19.879Z,0
2019-02-05T04:18:22.346Z,0
2019-02-05T04:19:24.523Z,0
2019-02-05T04:20:26.971Z,0
2019-02-05T04:21:30.534Z,0
2019-02-05T04:22:32.713Z,0
2019-02-05T04:23:34.858Z,0
2019-02-05T04:24:37.039Z,0
2019-02-05T04:25:39.219Z,0
2019-02-05T04:26:41.466Z,0
2019-02-05T04:27:47.181Z,0
2019-02-05T04:28:50.011Z,0
2019-02-05T04:29:52.189Z,0
2019-02-05T04:30:54.577Z,0
2019-02-05T04:31:56.774Z,0
2019-02-05T04:33:00.392Z,0
2019-02-05T04:34:02.881Z,0
2019-02-05T04:35:05.070Z,0
2019-02-05T04:36:07.240Z,0
2019-02-05T04:37:09.676Z,0
2019-02-05T04:38:11.856Z,0
2019-02-05T04:39:14.315Z,0
2019-02-05T04:40:16.498Z,0
2019-02-05T04:41:19.374Z,0
2019-02-05T04:42:21.531Z,0
2019-02-05T04:43:24.196Z,0
2019-02-05T04:44:27.639Z,0
2019-02-05T04:45:33.898Z,0
2019-02-05T04:46:36.856Z,0
2019-02-05T04:47:39.011Z,0
2019-02-05T04:48:43.615Z,0
2019-02-05T04:49:46.577Z,0
2019-02-05T04:50:48.768Z,0
2019-02-05T04:51:51.209Z,0
2019-02-05T04:52:53.507Z,0
2019-02-05T04:53:55.665Z,0
2019-02-05T04:54:58.104Z,0
2019-02-05T04:56:02.127Z,0
2019-02-05T04:57:05.689Z,0
2019-02-05T04:58:08.260Z,0
2019-02-05T04:59:10.448Z,0
2019-02-05T05:00:13.197Z,0
2019-02-05T05:01:15.796Z,0
2019-02-05T05:02:18.006Z,0
2019-02-05T05:03:20.195Z,0
2019-02-05T05:04:23.031Z,0
2019-02-05T05:05:25.235Z,0
2019-02-05T05:06:27.394Z,0
2019-02-05T05:07:30.897Z,0
2019-02-05T05:08:33.650Z,0
2019-02-05T05:09:35.835Z,0
2019-02-05T05:10:37.982Z,0
2019-02-05T05:11:41.084Z,0
2019-02-05T05:12:44.299Z,0
2019-02-05T05:13:46.469Z,0
2019-02-05T05:14:48.667Z,0
2019-02-05T05:15:50.986Z,0
2019-02-05T05:16:53.132Z,0
2019-02-05T05:17:56.469Z,0
2019-02-05T05:19:00.091Z,0
2019-02-05T05:20:02.341Z,0
2019-02-05T05:21:04.522Z,0
2019-02-05T05:22:06.957Z,0
2019-02-05T05:23:09.144Z,0
2019-02-05T05:24:11.307Z,0
2019-02-05T05:25:13.496Z,0
2019-02-05T05:26:15.646Z,0
2019-02-05T05:27:17.823Z,0
2019-02-05T05:28:20.793Z,0
2019-02-05T05:29:23.763Z,0
2019-02-05T05:30:26.367Z,0
2019-02-05T05:31:28.524Z,0
2019-02-05T05:32:30.714Z,0
2019-02-05T05:33:33.175Z,0
2019-02-05T05:34:35.403Z,0
2019-02-05T05:35:41.788Z,0
2019-02-05T05:36:47.073Z,0
2019-02-05T05:37:49.977Z,0
2019-02-05T05:38:52.161Z,0
2019-02-05T05:39:54.850Z,0
2019-02-05T05:41:01.167Z,0
2019-02-05T05:42:03.563Z,0
2019-02-05T05:43:05.868Z,0
2019-02-05T05:44:09.527Z,0
2019-02-05T05:45:12.180Z,0
2019-02-05T05:46:15.223Z,0
2019-02-05T05:47:17.448Z,0
2019-02-05T05:48:19.613Z,0
2019-02-05T05:49:21.811Z,0
2019-02-05T05:50:24.010Z,0
2019-02-05T05:51:26.594Z,0
2019-02-05T05:52:29.833Z,0
2019-02-05T05:53:32.011Z,0
2019-02-05T05:54:34.468Z,0
2019-02-05T05:55:36.763Z,0
2019-02-05T05:56:38.941Z,0
2019-02-05T05:57:41.515Z,0
2019-02-05T05:58:43.962Z,0
2019-02-05T05:59:46.415Z,0
2019-02-05T06:00:48.887Z,0
2019-02-05T06:01:51.569Z,0
2019-02-05T06:02:55.208Z,0
2019-02-05T06:03:57.613Z,0
2019-02-05T06:04:59.755Z,0
2019-02-05T06:06:02.093Z,0
2019-02-05T06:07:04.263Z,0
2019-02-05T06:08:06.458Z,0
2019-02-05T06:09:08.615Z,0
2019-02-05T06:10:10.799Z,0
2019-02-05T06:11:13.016Z,0
2019-02-05T06:12:15.428Z,0
2019-02-05T06:13:18.985Z,0
2019-02-05T06:14:21.153Z,0
2019-02-05T06:15:23.334Z,0
2019-02-05T06:16:25.515Z,0
2019-02-05T06:17:27.675Z,0
2019-02-05T06:18:29.894Z,0
2019-02-05T06:19:32.366Z,0
2019-02-05T06:20:34.540Z,0
2019-02-05T06:21:37.277Z,0
2019-02-05T06:22:39.544Z,4
2019-02-05T06:23:43.180Z,4
2019-02-05T06:24:45.791Z,0
2019-02-05T06:25:48.356Z,0
2019-02-05T06:26:50.844Z,4
2019-02-05T06:27:53.019Z,4
2019-02-05T06:28:55.226Z,4
2019-02-05T06:29:57.379Z,4
2019-02-05T06:30:59.554Z,8
2019-02-05T06:32:01.888Z,8
2019-02-05T06:33:04.151Z,12
2019-02-05T06:34:08.153Z,16
2019-02-05T06:35:10.332Z,20
2019-02-05T06:36:12.503Z,20
2019-02-05T06:37:15.234Z,24
2019-02-05T06:38:17.792Z,28
2019-02-05T06:39:19.967Z,40
2019-02-05T06:40:22.148Z,48
2019-02-05T06:41:24.332Z,52
2019-02-05T06:42:26.485Z,56
2019-02-05T06:43:28.668Z,68
2019-02-05T06:44:32.280Z,76
2019-02-05T06:45:34.411Z,84
2019-02-05T06:46:36.588Z,92
2019-02-05T06:47:38.763Z,112
2019-02-05T06:48:40.913Z,128
2019-02-05T06:49:43.187Z,120
2019-02-05T06:50:45.397Z,140
2019-02-05T06:51:47.555Z,156
2019-02-05T06:52:49.745Z,180
2019-02-05T06:53:51.911Z,204
2019-02-05T06:54:55.110Z,228
2019-02-05T06:55:57.298Z,264
2019-02-05T06:56:59.458Z,276
2019-02-05T06:58:01.983Z,244
2019-02-05T06:59:04.431Z,268
2019-02-05T07:00:06.602Z,316
2019-02-05T07:01:08.817Z,380
2019-02-05T07:02:10.998Z,436
2019-02-05T07:03:13.267Z,492
2019-02-05T07:04:15.570Z,524
2019-02-05T07:05:19.166Z,596
2019-02-05T07:06:21.535Z,560
2019-02-05T07:07:23.755Z,500
2019-02-05T07:08:26.002Z,524
2019-02-05T07:09:28.364Z,620
2019-02-05T07:10:30.597Z,648
2019-02-05T07:11:32.886Z,688
2019-02-05T07:12:35.129Z,612
2019-02-05T07:13:37.369Z,676
2019-02-05T07:14:39.603Z,748
2019-02-05T07:15:43.313Z,696
2019-02-05T07:16:45.551Z,672
2019-02-05T07:17:50.067Z,724
2019-02-05T07:18:52.795Z,752
2019-02-05T07:19:55.027Z,820
2019-02-05T07:20:57.296Z,932
2019-02-05T07:21:59.520Z,1024
2019-02-05T07:23:01.786Z,1040
2019-02-05T07:24:04.081Z,924
2019-02-05T07:25:06.403Z,968
2019-02-05T07:26:09.118Z,1068
2019-02-05T07:27:12.344Z,1304
2019-02-05T07:28:14.565Z,1536
2019-02-05T07:29:17.101Z,1708
2019-02-05T07:30:19.345Z,1796
2019-02-05T07:31:21.990Z,1808
2019-02-05T07:32:24.231Z,1800
2019-02-05T07:33:26.892Z,1720
2019-02-05T07:34:29.436Z,1536
2019-02-05T07:35:32.024Z,1504
2019-02-05T07:36:34.779Z,1644
2019-02-05T07:37:38.539Z,1448
2019-02-05T07:38:40.833Z,1412
2019-02-05T07:39:43.191Z,1472
2019-02-05T07:40:45.513Z,1712
2019-02-05T07:41:47.989Z,2132
2019-02-05T07:42:50.298Z,1976
2019-02-05T07:43:52.610Z,1836
2019-02-05T07:44:54.920Z,2168
2019-02-05T07:45:57.187Z,1988
2019-02-05T07:47:00.877Z,1628
2019-02-05T07:48:03.147Z,1808
2019-02-05T07:49:05.420Z,1716
2019-02-05T07:50:07.801Z,2116
2019-02-05T07:51:10.050Z,2228
2019-02-05T07:52:12.327Z,3588
2019-02-05T07:53:14.674Z,3008
2019-02-05T07:54:16.937Z,2356
2019-02-05T07:55:19.263Z,2416
2019-02-05T07:56:22.287Z,2364
2019-02-05T07:57:25.974Z,2436
2019-02-05T07:58:28.271Z,3084
2019-02-05T07:59:30.507Z,3048
2019-02-05T08:00:32.771Z,3088
2019-02-05T08:01:35.047Z,3820
2019-02-05T08:02:37.719Z,3456
2019-02-05T08:03:39.992Z,3356
2019-02-05T08:04:42.303Z,3340
2019-02-05T08:05:44.571Z,2964
2019-02-05T08:06:47.861Z,2508
2019-02-05T08:07:50.908Z,2988
2019-02-05T08:08:53.533Z,2708
2019-02-05T08:09:55.799Z,1932
2019-02-05T08:10:58.078Z,2164
2019-02-05T08:12:00.362Z,2348
2019-02-05T08:13:03.003Z,2768
2019-02-05T08:14:06.134Z,3204
2019-02-05T08:15:08.530Z,3756
2019-02-05T08:16:12.046Z,3472
2019-02-05T08:17:14.887Z,4248
2019-02-05T08:18:17.152Z,5524
2019-02-05T08:19:19.444Z,6252
2019-02-05T08:20:21.796Z,7480
2019-02-05T08:21:24.088Z,7248
2019-02-05T08:22:26.329Z,6268
2019-02-05T08:23:28.977Z,5080
2019-02-05T08:24:31.627Z,5664
2019-02-05T08:25:33.888Z,5152
2019-02-05T08:26:37.461Z,5388
2019-02-05T08:27:40.576Z,3928
2019-02-05T08:28:42.868Z,3944
2019-02-05T08:29:45.131Z,4288
2019-02-05T08:30:47.370Z,4512
2019-02-05T08:31:49.689Z,3500
2019-02-05T08:32:51.928Z,3600
2019-02-05T08:33:54.210Z,3720
2019-02-05T08:34:56.494Z,3468
2019-02-05T08:35:58.773Z,3324
2019-02-05T08:37:02.202Z,3380
2019-02-05T08:38:05.100Z,4292
2019-02-05T08:39:07.449Z,4424
2019-02-05T08:40:10.084Z,6204
2019-02-05T08:41:12.329Z,5476
2019-02-05T08:42:14.597Z,4384
2019-02-05T08:43:17.293Z,4936
2019-02-05T08:44:19.592Z,4684
2019-02-05T08:45:22.242Z,5272
2019-02-05T08:46:24.797Z,5044
2019-02-05T08:47:27.898Z,4184
2019-02-05T08:48:30.749Z,4452
2019-02-05T08:49:33.037Z,3888
2019-02-05T08:50:35.639Z,3996
2019-02-05T08:51:38.205Z,4156
2019-02-05T08:52:40.470Z,4956
2019-02-05T08:53:42.724Z,3992
2019-02-05T08:54:44.995Z,4092
2019-02-05T08:55:47.265Z,4248
2019-02-05T08:56:49.552Z,3824
2019-02-05T08:57:53.233Z,3044
2019-02-05T08:58:55.466Z,2732
2019-02-05T08:59:58.099Z,2792
2019-02-05T09:01:00.662Z,2744
2019-02-05T09:02:02.936Z,3500
2019-02-05T09:03:05.596Z,4096
2019-02-05T09:04:07.851Z,4216
2019-02-05T09:05:10.128Z,3612
2019-02-05T09:06:13.077Z,2812
2019-02-05T09:07:15.329Z,2328
2019-02-05T09:08:18.814Z,2508
2019-02-05T09:09:21.721Z,2748
2019-02-05T09:10:23.986Z,2756
2019-02-05T09:11:26.268Z,3116
2019-02-05T09:12:28.560Z,4516
2019-02-05T09:13:30.829Z,5120
2019-02-05T09:14:33.402Z,3904
2019-02-05T09:15:35.645Z,4352
2019-02-05T09:16:38.303Z,3832
2019-02-05T09:17:40.582Z,4620
2019-02-05T09:18:43.715Z,5148
2019-02-05T09:19:45.982Z,4880
2019-02-05T09:20:48.271Z,5088
2019-02-05T09:21:50.526Z,4532
2019-02-05T09:22:52.794Z,4644
2019-02-05T09:23:55.072Z,4220
2019-02-05T09:24:57.349Z,4648
2019-02-05T09:25:59.621Z,4604
2019-02-05T09:27:01.899Z,4948
2019-02-05T09:28:04.191Z,4220
2019-02-05T09:29:07.742Z,5420
2019-02-05T09:30:10.013Z,6004
2019-02-05T09:31:12.280Z,6148
2019-02-05T09:32:14.529Z,5028
2019-02-05T09:33:16.791Z,5236
2019-02-05T09:34:19.055Z,4556
2019-02-05T09:35:21.627Z,4484
2019-02-05T09:36:23.924Z,4796
2019-02-05T09:37:26.594Z,5452
2019-02-05T09:38:28.864Z,5356
2019-02-05T09:39:32.780Z,6300
2019-02-05T09:40:35.452Z,8012
2019-02-05T09:41:37.705Z,10300
2019-02-05T09:42:40.295Z,12160
2019-02-05T09:43:43.208Z,8668
2019-02-05T09:44:47.598Z,7172
2019-02-05T09:45:50.515Z,4800
2019-02-05T09:46:52.817Z,3588
2019-02-05T09:47:55.541Z,3884
2019-02-05T09:48:57.797Z,4624
2019-02-05T09:50:00.578Z,4352
2019-02-05T09:51:04.393Z,4972
2019-02-05T09:52:06.663Z,5732
2019-02-05T09:53:08.893Z,4740
2019-02-05T09:54:11.335Z,3688
2019-02-05T09:55:13.591Z,3044
2019-02-05T09:56:16.154Z,3108
2019-02-05T09:57:18.436Z,3088
2019-02-05T09:58:20.667Z,3328
2019-02-05T09:59:22.981Z,3480
2019-02-05T10:00:25.253Z,3764
2019-02-05T10:01:29.475Z,4848
2019-02-05T10:02:31.759Z,4048
2019-02-05T10:03:34.151Z,4268
2019-02-05T10:04:36.436Z,4200
2019-02-05T10:05:38.707Z,5164
2019-02-05T10:06:40.994Z,5500
2019-02-05T10:07:43.263Z,5012
2019-02-05T10:08:45.820Z,5200
2019-02-05T10:09:48.357Z,4456
2019-02-05T10:10:50.630Z,4328
2019-02-05T10:11:54.728Z,5252
2019-02-05T10:12:56.987Z,5732
2019-02-05T10:13:59.259Z,5432
2019-02-05T10:15:02.028Z,4872
2019-02-05T10:16:04.324Z,4768
2019-02-05T10:17:06.603Z,6644
2019-02-05T10:18:08.947Z,7672
2019-02-05T10:19:11.586Z,6128
2019-02-05T10:20:13.859Z,4676
2019-02-05T10:21:16.686Z,5596
2019-02-05T10:22:20.366Z,5724
2019-02-05T10:23:22.632Z,5212
2019-02-05T10:24:24.914Z,5640
2019-02-05T10:25:27.199Z,8024
2019-02-05T10:26:29.913Z,7004
2019-02-05T10:27:32.159Z,6892
2019-02-05T10:28:34.490Z,7368
2019-02-05T10:29:37.066Z,7412
2019-02-05T10:30:39.425Z,7740
2019-02-05T10:31:41.770Z,8164
2019-02-05T10:32:45.387Z,10444
2019-02-05T10:33:54.828Z,8588
2019-02-05T10:34:57.939Z,7756
2019-02-05T10:36:01.370Z,9796
2019-02-05T10:37:03.821Z,8660
2019-02-05T10:38:06.071Z,8276
2019-02-05T10:39:08.378Z,7952
2019-02-05T10:40:10.628Z,7404
2019-02-05T10:41:12.919Z,8004
2019-02-05T10:42:15.211Z,9204
2019-02-05T10:43:17.789Z,7572
2019-02-05T10:44:21.133Z,7704
2019-02-05T10:45:23.766Z,8100
2019-02-05T10:46:26.089Z,7712
2019-02-05T10:47:28.446Z,9408
2019-02-05T10:48:30.836Z,12300
2019-02-05T10:49:33.400Z,13176
2019-02-05T10:50:35.645Z,11104
2019-02-05T10:51:38.540Z,7948
2019-02-05T10:52:40.895Z,8080
2019-02-05T10:53:43.190Z,9956
2019-02-05T10:54:46.094Z,11196
2019-02-05T10:55:49.012Z,10532
2019-02-05T10:56:51.720Z,9044
2019-02-05T10:57:54.104Z,9988
2019-02-05T10:58:56.674Z,9984
2019-02-05T11:00:08.346Z,7748
2019-02-05T11:01:11.782Z,7636
2019-02-05T11:02:14.118Z,6088
2019-02-05T11:03:16.421Z,6332
2019-02-05T11:04:18.671Z,7576
2019-02-05T11:05:21.247Z,6936
2019-02-05T11:06:23.817Z,7540
2019-02-05T11:07:27.467Z,6704
2019-02-05T11:08:29.703Z,7920
2019-02-05T11:09:31.966Z,7692
2019-02-05T11:10:34.238Z,7076
2019-02-05T11:11:36.513Z,8900
2019-02-05T11:12:38.817Z,7828
2019-02-05T11:13:41.091Z,6928
2019-02-05T11:14:43.638Z,6348
2019-02-05T11:15:45.933Z,6192
2019-02-05T11:16:48.196Z,5920
2019-02-05T11:17:51.877Z,7124
2019-02-05T11:18:54.162Z,6804
2019-02-05T11:19:56.502Z,6348
2019-02-05T11:20:59.048Z,7776
2019-02-05T11:22:01.653Z,7192
2019-02-05T11:23:03.936Z,6972
2019-02-05T11:24:06.517Z,9012
2019-02-05T11:25:08.825Z,8688
2019-02-05T11:26:11.085Z,7180
2019-02-05T11:27:13.348Z,7716
2019-02-05T11:28:17.430Z,7864
2019-02-05T11:29:19.672Z,6768
2019-02-05T11:30:21.945Z,6672
2019-02-05T11:31:24.233Z,7292
2019-02-05T11:32:26.492Z,5984
2019-02-05T11:33:28.744Z,5440
2019-02-05T11:34:31.052Z,5744
2019-02-05T11:35:33.361Z,5644
2019-02-05T11:36:35.644Z,5860
2019-02-05T11:37:38.222Z,5532
2019-02-05T11:38:41.944Z,5020
2019-02-05T11:39:44.247Z,6628
2019-02-05T11:40:46.554Z,7876
2019-02-05T11:41:49.003Z,8332
2019-02-05T11:42:51.303Z,5940
2019-02-05T11:43:53.865Z,5024
2019-02-05T11:44:56.163Z,5600
2019-02-05T11:45:58.732Z,5164
2019-02-05T11:47:03.772Z,6100
2019-02-05T11:48:06.759Z,6480
2019-02-05T11:49:10.078Z,4496
2019-02-05T11:50:13.157Z,5504
2019-02-05T11:51:15.431Z,4920
2019-02-05T11:52:17.674Z,4736
2019-02-05T11:53:19.923Z,4680
2019-02-05T11:54:22.520Z,4468
2019-02-05T11:55:24.783Z,5056
2019-02-05T11:56:27.094Z,5864
2019-02-05T11:57:29.770Z,5476
2019-02-05T11:58:32.063Z,6608
2019-02-05T11:59:35.388Z,5952
2019-02-05T12:00:38.183Z,6364
2019-02-05T12:01:40.463Z,6476
2019-02-05T12:02:42.754Z,6548
2019-02-05T12:03:45.040Z,5968
2019-02-05T12:04:47.334Z,5784
2019-02-05T12:05:49.607Z,4684
2019-02-05T12:06:51.904Z,4608
2019-02-05T12:07:54.189Z,5136
2019-02-05T12:08:56.542Z,5612
2019-02-05T12:09:59.782Z,5620
2019-02-05T12:11:02.188Z,5356
2019-02-05T12:12:04.458Z,5980
2019-02-05T12:13:06.702Z,6456
2019-02-05T12:14:09.026Z,4976
2019-02-05T12:15:11.326Z,4704
2019-02-05T12:16:13.602Z,6020
2019-02-05T12:17:16.199Z,5072
2019-02-05T12:18:18.632Z,6000
2019-02-05T12:19:20.910Z,7592
2019-02-05T12:20:24.584Z,7580
2019-02-05T12:21:26.832Z,6200
2019-02-05T12:22:29.265Z,5600
2019-02-05T12:23:31.543Z,7636
2019-02-05T12:24:33.806Z,5724
2019-02-05T12:25:36.073Z,5084
2019-02-05T12:26:38.377Z,5932
2019-02-05T12:27:40.677Z,5568
2019-02-05T12:28:42.944Z,7180
2019-02-05T12:29:45.355Z,9768
2019-02-05T12:30:48.719Z,11256
2019-02-05T12:31:50.981Z,40736
2019-02-05T12:32:53.210Z,11624
2019-02-05T12:33:55.485Z,9268
2019-02-05T12:34:57.745Z,8748
2019-02-05T12:35:59.956Z,8684
2019-02-05T12:37:02.610Z,10672
2019-02-05T12:38:05.275Z,11596
2019-02-05T12:39:07.538Z,6836
2019-02-05T12:40:10.077Z,5808
2019-02-05T12:41:13.777Z,4696
2019-02-05T12:42:15.996Z,4976
2019-02-05T12:43:18.233Z,5704
2019-02-05T12:44:20.515Z,8420
2019-02-05T12:45:22.735Z,6884
2019-02-05T12:46:25.008Z,5588
2019-02-05T12:47:27.248Z,6484
2019-02-05T12:48:29.527Z,6168
2019-02-05T12:49:31.771Z,5180
2019-02-05T12:50:34.029Z,5344
2019-02-05T12:51:37.798Z,5452
2019-02-05T12:52:40.030Z,4592
2019-02-05T12:53:42.587Z,5016
2019-02-05T12:54:44.950Z,4676
2019-02-05T12:55:47.182Z,5020
2019-02-05T12:56:49.427Z,4636
2019-02-05T12:57:51.701Z,3996
2019-02-05T12:58:54.295Z,3064
2019-02-05T12:59:56.523Z,3208
2019-02-05T13:00:59.147Z,3260
2019-02-05T13:02:03.579Z,2904
2019-02-05T13:03:07.390Z,3468
2019-02-05T13:04:09.633Z,5456
2019-02-05T13:05:11.983Z,6920
2019-02-05T13:06:14.225Z,6484
2019-02-05T13:07:16.458Z,6472
2019-02-05T13:08:18.661Z,5464
2019-02-05T13:09:20.891Z,5760
2019-02-05T13:10:23.094Z,5664
2019-02-05T13:11:25.410Z,4972
2019-02-05T13:12:28.341Z,4436
2019-02-05T13:13:31.367Z,4088
2019-02-05T13:14:34.628Z,3624
2019-02-05T13:15:37.234Z,3384
2019-02-05T13:16:39.472Z,3512
2019-02-05T13:17:41.671Z,4020
2019-02-05T13:18:43.915Z,3872
2019-02-05T13:19:46.134Z,3464
2019-02-05T13:20:48.342Z,3488
2019-02-05T13:21:50.595Z,4024
2019-02-05T13:22:53.222Z,4000
2019-02-05T13:23:55.720Z,3368
2019-02-05T13:24:58.774Z,3356
2019-02-05T13:26:01.537Z,3856
2019-02-05T13:27:04.060Z,4780
2019-02-05T13:28:06.279Z,4840
2019-02-05T13:29:08.507Z,4504
2019-02-05T13:30:10.722Z,4744
2019-02-05T13:31:12.933Z,3968
2019-02-05T13:32:15.155Z,3540
2019-02-05T13:33:17.354Z,3300
2019-02-05T13:34:19.863Z,3524
2019-02-05T13:35:22.394Z,5108
2019-02-05T13:36:26.054Z,7488
2019-02-05T13:37:28.288Z,10380
2019-02-05T13:38:30.595Z,9984
2019-02-05T13:39:33.122Z,9280
2019-02-05T13:40:35.720Z,10640
2019-02-05T13:41:37.926Z,11144
2019-02-05T13:42:40.170Z,10640
2019-02-05T13:43:42.400Z,7712
2019-02-05T13:44:45.193Z,5948
2019-02-05T13:45:47.698Z,4996
2019-02-05T13:46:50.627Z,4916
2019-02-05T13:47:54.387Z,4908
2019-02-05T13:48:56.601Z,4256
2019-02-05T13:49:58.844Z,3452
2019-02-05T13:51:01.364Z,3780
2019-02-05T13:52:03.613Z,3936
2019-02-05T13:53:05.977Z,3352
2019-02-05T13:54:08.516Z,3976
2019-02-05T13:55:11.031Z,4792
2019-02-05T13:56:13.301Z,5232
2019-02-05T13:57:15.518Z,5068
2019-02-05T13:58:18.147Z,5864
2019-02-05T13:59:22.122Z,6192
2019-02-05T14:00:24.341Z,6104
2019-02-05T14:01:26.567Z,6624
2019-02-05T14:02:28.789Z,8068
2019-02-05T14:03:31.037Z,10060
2019-02-05T14:04:33.263Z,10732
2019-02-05T14:05:35.480Z,10228
2019-02-05T14:06:37.769Z,9100
2019-02-05T14:07:40.296Z,8744
2019-02-05T14:08:42.531Z,7488
2019-02-05T14:09:45.927Z,5740
2019-02-05T14:10:48.140Z,4764
2019-02-05T14:11:50.808Z,4376
2019-02-05T14:12:53.015Z,4136
2019-02-05T14:13:55.240Z,4060
2019-02-05T14:14:57.494Z,4812
2019-02-05T14:15:59.763Z,5116
2019-02-05T14:17:01.995Z,5052
2019-02-05T14:18:04.642Z,4160
2019-02-05T14:19:06.837Z,3536
2019-02-05T14:20:09.312Z,3620
2019-02-05T14:21:13.040Z,2988
2019-02-05T14:22:15.815Z,2288
2019-02-05T14:23:18.270Z,2292
2019-02-05T14:24:21.006Z,2180
2019-02-05T14:25:23.641Z,2120
2019-02-05T14:26:25.873Z,2024
2019-02-05T14:27:28.107Z,2656
2019-02-05T14:28:30.688Z,2380
2019-02-05T14:29:32.933Z,2748
2019-02-05T14:30:35.419Z,3320
2019-02-05T14:31:39.088Z,2744
2019-02-05T14:32:41.301Z,2712